Airfield :
LOGIN :

Register | Disclaimer

   EN    FR    IT 

 










Legend :    VFR   Marginal VFR   IFR   Intensive IFR   Very Intensive IFR
Visi :
Ceiling :
>= 8 km
>= 3000ft
5 to 8 km
1000 to 3000 ft
1500m to 5 km
500 to 1000 ft
800 to 1500m
200 to 500 ft
< 800m
< 200 ft
Symbols :   Thunderstorms  Fog  Heavy snow  Heavy precipitations  Wind > 20 kt
SIGMETs :     Misc.  Thunderstorms  Icing  Turbulence  Mountain Waves  Volcanic Ashes






- Airport Elevation : 257 ft
- IATA code : MAN


EGCC - Manchester

CURRENT METAR :
  • 190820Z AUTO VRB02KT 9999 //////TCU 13/12 Q1014 NOSIG

EXPIRED METARs :
  • 190750Z AUTO VRB01KT 9999 //////TCU 13/12 Q1014
  • 190720Z AUTO VRB02KT 9999 //////TCU 13/12 Q1014
  • 190650Z AUTO VRB02KT 9999 -RA //////TCU 13/12 Q1013
  • 190620Z AUTO VRB02KT 5000 -RA FEW043/// //////TCU 13/12 Q1013 RERA TEMPO 4000 RA BKN012
  • 190550Z AUTO VRB01KT 4900 RA FEW021/// BKN032/// OVC041/// //////CB 13/12 Q1013 TEMPO 7000 BKN012

TAF TAF EGCC
Valid from the 19 at 06:00 until the 20 at 12:00 UTC


190459Z 1906/2012 25005KT 9999 SCT020
TEMPO 1906/1909 8000 RA BKN010
PROB30
TEMPO 1906/1908 4000 +RA BKN006
BECMG 1913/1916 31010KT
TEMPO 1914/1919 8000 SHRA BKN014
TEMPO 2000/2009 8000
PROB30
TEMPO 2002/2007 4000 BR
ATIS : +44 161 499 2324



MET'MAP, your aeronautical weather chart ! - Copyright ORBIFLY December 2007 - Disclaimer

ORBIFLY MET'MAP TEAM :

Programming & Development : Alexandra Zaïnal
Concept & original design : Baudouin d'Aumeries
Assistance for programming : Marc-Olivier Méhu
Technical & hardware support : Manuel Goepfert

Contact : metmap@orbifly.com




SOURCES & CREDITS :

   NOAA